createdAt,value
2018-10-07T00:01:32.137Z,13.12
2018-10-07T00:04:00.779Z,13.08
2018-10-07T00:06:29.237Z,13.03
2018-10-07T00:08:57.773Z,13.12
2018-10-07T00:11:26.375Z,13.19
2018-10-07T00:13:54.899Z,13.08
2018-10-07T00:16:23.388Z,13.06
2018-10-07T00:18:51.934Z,12.96
2018-10-07T00:21:20.601Z,12.86
2018-10-07T00:23:49.197Z,12.78
2018-10-07T00:26:17.891Z,12.70
2018-10-07T00:28:46.403Z,12.68
2018-10-07T00:31:14.933Z,12.63
2018-10-07T00:33:43.409Z,12.55
2018-10-07T00:36:11.945Z,12.50
2018-10-07T00:38:40.628Z,12.42
2018-10-07T00:41:09.389Z,12.39
2018-10-07T00:43:37.929Z,12.36
2018-10-07T00:46:06.541Z,12.31
2018-10-07T00:48:35.225Z,12.20
2018-10-07T00:51:03.719Z,12.12
2018-10-07T00:53:32.472Z,12.06
2018-10-07T00:56:01.024Z,12.04
2018-10-07T00:58:30.270Z,12.04
2018-10-07T01:00:58.794Z,12.01
2018-10-07T01:03:27.342Z,11.97
2018-10-07T01:05:56.043Z,11.96
2018-10-07T01:08:24.562Z,11.95
2018-10-07T01:10:53.131Z,11.92
2018-10-07T01:13:21.645Z,11.86
2018-10-07T01:15:50.174Z,11.78
2018-10-07T01:18:20.251Z,11.72
2018-10-07T01:20:48.837Z,11.67
2018-10-07T01:23:17.382Z,11.53
2018-10-07T01:25:52.500Z,11.43
2018-10-07T01:28:21.138Z,11.45
2018-10-07T01:30:49.653Z,11.43
2018-10-07T01:33:18.284Z,11.41
2018-10-07T01:35:46.977Z,11.36
2018-10-07T01:38:15.473Z,11.31
2018-10-07T01:40:44.068Z,11.29
2018-10-07T01:43:12.614Z,11.29
2018-10-07T01:45:41.201Z,11.30
2018-10-07T01:48:09.687Z,11.27
2018-10-07T01:50:38.294Z,11.23
2018-10-07T01:53:06.940Z,11.16
2018-10-07T01:55:35.403Z,11.13
2018-10-07T01:58:03.948Z,11.10
2018-10-07T02:00:32.478Z,11.09
2018-10-07T02:03:01.022Z,10.98
2018-10-07T02:05:30.803Z,10.86
2018-10-07T02:07:59.467Z,10.72
2018-10-07T02:10:28.063Z,10.60
2018-10-07T02:12:56.813Z,10.45
2018-10-07T02:15:25.387Z,10.43
2018-10-07T02:17:53.922Z,10.39
2018-10-07T02:20:22.536Z,10.33
2018-10-07T02:22:51.177Z,10.37
2018-10-07T02:25:19.746Z,10.43
2018-10-07T02:27:48.313Z,10.43
2018-10-07T02:30:16.934Z,10.37
2018-10-07T02:32:45.504Z,10.44
2018-10-07T02:35:14.133Z,10.44
2018-10-07T02:37:42.713Z,10.46
2018-10-07T02:40:11.880Z,10.45
2018-10-07T02:42:40.863Z,10.37
2018-10-07T02:45:09.509Z,10.33
2018-10-07T02:47:38.180Z,10.28
2018-10-07T02:50:15.236Z,10.24
2018-10-07T02:52:47.762Z,10.21
2018-10-07T02:55:18.563Z,10.18
2018-10-07T02:57:47.196Z,10.15
2018-10-07T03:00:15.785Z,10.15
2018-10-07T03:02:44.387Z,10.15
2018-10-07T03:05:13.286Z,10.19
2018-10-07T03:07:45.532Z,10.18
2018-10-07T03:10:15.157Z,10.19
2018-10-07T03:12:43.690Z,10.14
2018-10-07T03:15:12.605Z,10.09
2018-10-07T03:17:41.135Z,9.98
2018-10-07T03:20:09.750Z,10.00
2018-10-07T03:22:38.482Z,10.08
2018-10-07T03:25:07.100Z,10.15
2018-10-07T03:27:35.719Z,10.20
2018-10-07T03:30:04.331Z,10.18
2018-10-07T03:32:32.769Z,10.09
2018-10-07T03:35:01.494Z,10.02
2018-10-07T03:37:30.080Z,9.97
2018-10-07T03:39:58.777Z,9.95
2018-10-07T03:42:27.351Z,9.80
2018-10-07T03:44:56.108Z,9.67
2018-10-07T03:47:24.701Z,9.64
2018-10-07T03:49:53.334Z,9.69
2018-10-07T03:52:21.934Z,9.80
2018-10-07T03:54:50.501Z,9.76
2018-10-07T03:57:19.105Z,9.75
2018-10-07T03:59:48.204Z,9.75
2018-10-07T04:02:17.029Z,9.79
2018-10-07T04:04:45.616Z,9.82
2018-10-07T04:07:14.135Z,9.83
2018-10-07T04:09:42.763Z,9.75
2018-10-07T04:12:12.939Z,9.65
2018-10-07T04:14:41.465Z,9.60
2018-10-07T04:17:10.194Z,9.53
2018-10-07T04:19:38.672Z,9.47
2018-10-07T04:22:07.261Z,9.33
2018-10-07T04:24:36.110Z,9.10
2018-10-07T04:27:05.606Z,9.01
2018-10-07T04:29:34.552Z,8.95
2018-10-07T04:32:03.156Z,8.97
2018-10-07T04:34:31.647Z,9.04
2018-10-07T04:37:00.204Z,9.08
2018-10-07T04:39:28.774Z,9.10
2018-10-07T04:41:57.362Z,9.10
2018-10-07T04:44:26.972Z,9.02
2018-10-07T04:46:55.541Z,8.94
2018-10-07T04:49:24.146Z,8.84
2018-10-07T04:51:53.040Z,8.77
2018-10-07T04:54:21.758Z,8.73
2018-10-07T04:56:50.352Z,8.81
2018-10-07T04:59:18.949Z,8.84
2018-10-07T05:01:48.548Z,8.84
2018-10-07T05:04:17.102Z,8.82
2018-10-07T05:06:45.866Z,8.84
2018-10-07T05:09:14.437Z,8.87
2018-10-07T05:11:43.538Z,8.83
2018-10-07T05:14:12.655Z,8.81
2018-10-07T05:16:50.506Z,8.87
2018-10-07T05:19:19.390Z,8.93
2018-10-07T05:21:48.006Z,9.01
2018-10-07T05:24:16.584Z,9.07
2018-10-07T05:26:45.245Z,9.19
2018-10-07T05:29:14.945Z,9.29
2018-10-07T05:31:43.594Z,9.20
2018-10-07T05:34:12.298Z,9.22
2018-10-07T05:36:40.837Z,9.29
2018-10-07T05:39:10.854Z,9.33
2018-10-07T05:41:39.599Z,9.50
2018-10-07T05:44:09.129Z,9.54
2018-10-07T05:46:37.826Z,9.50
2018-10-07T05:49:06.480Z,9.44
2018-10-07T05:51:34.983Z,9.45
2018-10-07T05:54:03.617Z,9.45
2018-10-07T05:56:32.254Z,9.53
2018-10-07T05:59:00.840Z,9.61
2018-10-07T06:01:40.092Z,9.68
2018-10-07T06:04:21.091Z,9.70
2018-10-07T06:06:49.818Z,9.87
2018-10-07T06:09:27.143Z,9.99
2018-10-07T06:11:56.413Z,10.25
2018-10-07T06:14:36.479Z,10.40
2018-10-07T06:17:05.459Z,10.48
2018-10-07T06:19:34.129Z,10.64
2018-10-07T06:22:04.042Z,10.78
2018-10-07T06:24:33.187Z,10.85
2018-10-07T06:27:02.907Z,11.03
2018-10-07T06:29:32.062Z,11.15
2018-10-07T06:32:00.747Z,11.29
2018-10-07T06:34:29.590Z,11.41
2018-10-07T06:36:58.147Z,11.48
2018-10-07T06:39:26.945Z,11.66
2018-10-07T06:41:55.722Z,11.79
2018-10-07T06:44:24.353Z,12.03
2018-10-07T06:46:53.114Z,12.11
2018-10-07T06:49:21.894Z,12.27
2018-10-07T06:51:50.817Z,12.49
2018-10-07T06:54:19.422Z,12.69
2018-10-07T06:56:49.504Z,12.91
2018-10-07T06:59:18.113Z,13.10
2018-10-07T07:01:46.780Z,13.27
2018-10-07T07:04:15.942Z,13.44
2018-10-07T07:06:44.664Z,13.59
2018-10-07T07:09:13.647Z,13.72
2018-10-07T07:11:42.333Z,13.86
2018-10-07T07:14:12.365Z,13.99
2018-10-07T07:16:41.942Z,14.07
2018-10-07T07:19:10.638Z,14.16
2018-10-07T07:21:39.324Z,14.21
2018-10-07T07:24:07.924Z,14.25
2018-10-07T07:26:36.599Z,14.27
2018-10-07T07:29:05.959Z,14.29
2018-10-07T07:31:35.565Z,14.29
2018-10-07T07:34:04.274Z,14.29
2018-10-07T07:36:32.851Z,14.29
2018-10-07T07:39:01.581Z,14.29
2018-10-07T07:41:30.075Z,14.32
2018-10-07T07:43:58.699Z,14.36
2018-10-07T07:46:27.492Z,14.45
2018-10-07T07:48:56.202Z,14.58
2018-10-07T07:51:25.073Z,14.70
2018-10-07T07:53:53.660Z,14.88
2018-10-07T07:56:22.253Z,15.06
2018-10-07T07:58:50.874Z,15.23
2018-10-07T08:01:19.425Z,15.38
2018-10-07T08:03:48.106Z,15.55
2018-10-07T08:06:16.725Z,15.68
2018-10-07T08:08:46.448Z,15.86
2018-10-07T08:11:15.140Z,16.02
2018-10-07T08:13:43.680Z,16.14
2018-10-07T08:16:12.438Z,16.25
2018-10-07T08:18:41.059Z,16.38
2018-10-07T08:21:09.666Z,16.50
2018-10-07T08:23:38.450Z,16.61
2018-10-07T08:26:07.107Z,16.74
2018-10-07T08:28:35.746Z,16.83
2018-10-07T08:31:05.564Z,16.98
2018-10-07T08:33:35.371Z,17.12
2018-10-07T08:36:03.982Z,17.34
2018-10-07T08:38:34.754Z,17.62
2018-10-07T08:41:03.217Z,17.79
2018-10-07T08:43:31.724Z,17.88
2018-10-07T08:46:00.218Z,17.99
2018-10-07T08:48:28.709Z,18.01
2018-10-07T08:50:57.405Z,18.10
2018-10-07T08:53:26.110Z,18.04
2018-10-07T08:55:54.653Z,17.97
2018-10-07T08:58:23.177Z,18.00
2018-10-07T09:00:51.729Z,18.02
2018-10-07T09:03:20.272Z,18.04
2018-10-07T09:05:48.891Z,17.94
2018-10-07T09:08:17.650Z,17.93
2018-10-07T09:10:46.310Z,17.93
2018-10-07T09:13:14.877Z,17.94
2018-10-07T09:15:43.411Z,17.96
2018-10-07T09:18:12.116Z,17.96
2018-10-07T09:20:40.673Z,18.00
2018-10-07T09:23:09.261Z,18.09
2018-10-07T09:25:38.210Z,18.30
2018-10-07T09:28:06.891Z,18.56
2018-10-07T09:30:37.047Z,18.79
2018-10-07T09:33:05.609Z,18.94
2018-10-07T09:35:34.194Z,19.08
2018-10-07T09:38:02.865Z,19.31
2018-10-07T09:40:31.544Z,19.42
2018-10-07T09:43:00.085Z,19.51
2018-10-07T09:45:28.772Z,19.66
2018-10-07T09:47:57.361Z,19.80
2018-10-07T09:50:26.243Z,19.93
2018-10-07T09:52:54.826Z,19.94
2018-10-07T09:55:23.321Z,19.98
2018-10-07T09:57:51.926Z,20.00
2018-10-07T10:00:25.830Z,19.93
2018-10-07T10:02:54.361Z,19.92
2018-10-07T10:05:22.945Z,19.90
2018-10-07T10:07:52.529Z,19.90
2018-10-07T10:10:21.225Z,19.91
2018-10-07T10:12:49.931Z,19.93
2018-10-07T10:15:18.493Z,19.96
2018-10-07T10:17:47.901Z,19.96
2018-10-07T10:20:17.923Z,20.02
2018-10-07T10:23:00.322Z,20.11
2018-10-07T10:26:37.755Z,20.23
2018-10-07T10:29:08.802Z,20.40
2018-10-07T10:31:48.643Z,20.56
2018-10-07T10:35:00.377Z,20.82
2018-10-07T10:37:42.585Z,21.02
2018-10-07T10:40:23.082Z,21.08
2018-10-07T10:43:09.295Z,21.18
2018-10-07T10:46:01.358Z,21.20
2018-10-07T10:48:40.026Z,21.35
2018-10-07T10:52:24.755Z,21.56
2018-10-07T10:55:06.433Z,21.63
2018-10-07T10:57:43.439Z,21.73
2018-10-07T11:00:18.131Z,21.79
2018-10-07T11:04:10.355Z,21.95
2018-10-07T11:06:47.511Z,22.04
2018-10-07T11:09:27.238Z,22.17
2018-10-07T11:12:02.219Z,22.31
2018-10-07T11:14:53.181Z,22.59
2018-10-07T11:17:30.989Z,22.94
2018-10-07T11:20:09.549Z,23.12
2018-10-07T11:22:50.415Z,23.54
2018-10-07T11:25:32.130Z,23.85
2018-10-07T11:28:10.585Z,23.79
2018-10-07T11:30:44.487Z,24.25
2018-10-07T11:33:25.812Z,24.71
2018-10-07T11:36:05.510Z,24.74
2018-10-07T11:39:17.279Z,25.06
2018-10-07T11:41:55.205Z,25.24
2018-10-07T11:44:34.610Z,25.41
2018-10-07T11:47:18.644Z,25.35
2018-10-07T11:49:54.982Z,25.32
2018-10-07T11:52:59.214Z,25.41
2018-10-07T11:55:27.749Z,25.47
2018-10-07T11:57:56.332Z,25.16
2018-10-07T12:00:26.992Z,25.11
2018-10-07T12:02:55.673Z,25.09
2018-10-07T12:05:25.047Z,25.19
2018-10-07T12:07:54.835Z,25.26
2018-10-07T12:10:27.354Z,25.11
2018-10-07T12:12:55.938Z,25.34
2018-10-07T12:15:24.506Z,25.41
2018-10-07T12:17:53.454Z,25.36
2018-10-07T12:20:22.021Z,25.45
2018-10-07T12:22:50.757Z,25.24
2018-10-07T12:25:19.270Z,24.99
2018-10-07T12:27:47.888Z,24.97
2018-10-07T12:30:16.618Z,24.77
2018-10-07T12:32:46.150Z,24.47
2018-10-07T12:35:14.793Z,24.16
2018-10-07T12:37:43.268Z,23.61
2018-10-07T12:40:12.989Z,23.66
2018-10-07T12:42:41.828Z,23.39
2018-10-07T12:45:10.498Z,23.86
2018-10-07T12:47:39.243Z,24.30
2018-10-07T12:50:07.949Z,24.79
2018-10-07T12:52:37.246Z,25.15
2018-10-07T12:55:06.069Z,25.36
2018-10-07T12:57:34.606Z,25.58
2018-10-07T13:00:03.486Z,25.57
2018-10-07T13:02:32.074Z,25.61
2018-10-07T13:05:00.590Z,25.85
2018-10-07T13:07:29.615Z,25.95
2018-10-07T13:09:58.291Z,25.97
2018-10-07T13:12:27.027Z,26.08
2018-10-07T13:14:55.554Z,25.86
2018-10-07T13:17:24.248Z,25.78
2018-10-07T13:19:53.016Z,25.69
2018-10-07T13:22:21.681Z,25.55
2018-10-07T13:24:50.374Z,25.52
2018-10-07T13:27:18.904Z,25.41
2018-10-07T13:29:47.751Z,25.48
2018-10-07T13:32:16.403Z,25.76
2018-10-07T13:34:45.041Z,25.64
2018-10-07T13:37:13.725Z,25.66
2018-10-07T13:39:42.335Z,25.84
2018-10-07T13:42:11.851Z,25.73
2018-10-07T13:44:40.591Z,25.91
2018-10-07T13:47:09.077Z,25.95
2018-10-07T13:49:37.799Z,25.93
2018-10-07T13:52:06.294Z,25.66
2018-10-07T13:54:34.755Z,25.59
2018-10-07T13:57:03.339Z,25.52
2018-10-07T13:59:31.926Z,25.55
2018-10-07T14:02:00.738Z,25.81
2018-10-07T14:04:29.338Z,25.80
2018-10-07T14:06:57.865Z,25.35
2018-10-07T14:09:26.443Z,25.44
2018-10-07T14:11:55.124Z,25.12
2018-10-07T14:14:23.981Z,25.33
2018-10-07T14:16:52.562Z,25.24
2018-10-07T14:19:21.489Z,24.67
2018-10-07T14:21:50.121Z,23.85
2018-10-07T14:24:18.635Z,23.09
2018-10-07T14:26:47.366Z,22.64
2018-10-07T14:29:16.074Z,22.45
2018-10-07T14:31:44.670Z,21.95
2018-10-07T14:34:13.242Z,21.75
2018-10-07T14:36:41.959Z,21.88
2018-10-07T14:39:12.681Z,21.64
2018-10-07T14:41:41.378Z,21.63
2018-10-07T14:44:10.066Z,21.27
2018-10-07T14:46:38.755Z,20.76
2018-10-07T14:49:07.464Z,20.41
2018-10-07T14:51:37.454Z,20.01
2018-10-07T14:54:06.077Z,19.63
2018-10-07T14:56:34.596Z,19.16
2018-10-07T14:59:03.260Z,18.59
2018-10-07T15:01:31.795Z,18.12
2018-10-07T15:04:00.566Z,17.74
2018-10-07T15:06:53.174Z,17.42
2018-10-07T15:09:21.939Z,17.18
2018-10-07T15:11:50.557Z,17.01
2018-10-07T15:14:19.122Z,16.85
2018-10-07T15:16:47.866Z,16.74
2018-10-07T15:21:31.385Z,16.66
2018-10-07T15:24:00.051Z,16.36
2018-10-07T15:26:28.694Z,16.13
2018-10-07T15:28:57.431Z,15.93
2018-10-07T15:31:25.923Z,15.79
2018-10-07T15:33:55.659Z,15.63
2018-10-07T15:36:24.376Z,15.51
2018-10-07T15:38:52.941Z,15.43
2018-10-07T15:41:21.549Z,15.35
2018-10-07T15:43:50.167Z,15.28
2018-10-07T15:46:18.785Z,15.20
2018-10-07T15:48:47.554Z,15.12
2018-10-07T15:51:16.161Z,15.05
2018-10-07T15:53:44.739Z,14.94
2018-10-07T15:56:13.285Z,14.82
2018-10-07T15:58:41.825Z,14.72
2018-10-07T16:01:10.368Z,14.63
2018-10-07T16:03:39.953Z,14.56
2018-10-07T16:06:08.514Z,14.49
2018-10-07T16:08:37.205Z,14.41
2018-10-07T16:11:05.999Z,14.32
2018-10-07T16:13:34.601Z,14.25
2018-10-07T16:16:03.155Z,14.17
2018-10-07T16:18:31.776Z,14.13
2018-10-07T16:21:00.350Z,14.07
2018-10-07T16:23:28.972Z,14.04
2018-10-07T16:25:58.151Z,14.03
2018-10-07T16:28:31.304Z,13.97
2018-10-07T16:30:59.909Z,13.89
2018-10-07T16:33:28.644Z,13.78
2018-10-07T16:35:57.174Z,13.69
2018-10-07T16:38:26.286Z,13.59
2018-10-07T16:40:55.726Z,13.52
2018-10-07T16:43:24.406Z,13.48
2018-10-07T16:45:52.997Z,13.39
2018-10-07T16:48:21.556Z,13.37
2018-10-07T16:50:50.238Z,13.30
2018-10-07T16:53:19.004Z,13.23
2018-10-07T16:55:47.534Z,13.20
2018-10-07T16:58:17.177Z,13.13
2018-10-07T17:00:46.850Z,13.08
2018-10-07T17:03:15.611Z,13.04
2018-10-07T17:05:44.228Z,13.02
2018-10-07T17:08:12.845Z,12.98
2018-10-07T17:10:41.374Z,12.93
2018-10-07T17:13:09.965Z,12.89
2018-10-07T17:15:38.492Z,12.84
2018-10-07T17:18:07.520Z,12.83
2018-10-07T17:20:36.021Z,12.79
2018-10-07T17:23:04.571Z,12.75
2018-10-07T17:25:33.144Z,12.74
2018-10-07T17:28:04.590Z,12.71
2018-10-07T17:30:33.870Z,12.69
2018-10-07T17:33:02.513Z,12.67
2018-10-07T17:35:31.327Z,12.65
2018-10-07T17:37:59.919Z,12.62
2018-10-07T17:40:28.618Z,12.59
2018-10-07T17:42:59.162Z,12.56
2018-10-07T17:45:27.971Z,12.56
2018-10-07T17:47:56.665Z,12.54
2018-10-07T17:50:25.238Z,12.48
2018-10-07T17:52:53.868Z,12.43
2018-10-07T17:55:22.514Z,12.39
2018-10-07T17:57:51.138Z,12.35
2018-10-07T18:00:19.803Z,12.29
2018-10-07T18:02:49.260Z,12.22
2018-10-07T18:05:17.658Z,12.15
2018-10-07T18:07:46.198Z,12.08
2018-10-07T18:10:14.990Z,12.00
2018-10-07T18:12:44.597Z,11.91
2018-10-07T18:15:13.653Z,11.83
2018-10-07T18:17:43.133Z,11.77
2018-10-07T18:20:11.677Z,11.70
2018-10-07T18:22:40.280Z,11.63
2018-10-07T18:25:08.967Z,11.52
2018-10-07T18:27:37.640Z,11.46
2018-10-07T18:30:06.330Z,11.39
2018-10-07T18:32:35.522Z,11.34
2018-10-07T18:35:04.228Z,11.28
2018-10-07T18:37:33.230Z,11.21
2018-10-07T18:40:02.868Z,11.15
2018-10-07T18:42:31.544Z,11.09
2018-10-07T18:45:00.146Z,11.02
2018-10-07T18:47:29.434Z,10.95
2018-10-07T18:49:58.141Z,10.90
2018-10-07T18:52:27.285Z,10.84
2018-10-07T18:54:55.982Z,10.79
2018-10-07T18:57:24.521Z,10.74
2018-10-07T18:59:53.151Z,10.66
2018-10-07T19:02:22.096Z,10.62
2018-10-07T19:04:50.639Z,10.55
2018-10-07T19:07:19.191Z,10.52
2018-10-07T19:09:47.831Z,10.47
2018-10-07T19:12:16.480Z,10.45
2018-10-07T19:14:45.228Z,10.43
2018-10-07T19:17:13.955Z,10.43
2018-10-07T19:19:43.493Z,10.40
2018-10-07T19:22:12.231Z,10.36
2018-10-07T19:24:40.830Z,10.33
2018-10-07T19:27:10.778Z,10.28
2018-10-07T19:29:39.420Z,10.26
2018-10-07T19:32:07.993Z,10.24
2018-10-07T19:34:36.580Z,10.20
2018-10-07T19:37:05.432Z,10.20
2018-10-07T19:39:34.186Z,10.18
2018-10-07T19:42:02.834Z,10.20
2018-10-07T19:44:31.514Z,10.20
2018-10-07T19:47:00.126Z,10.20
2018-10-07T19:49:28.825Z,10.19
2018-10-07T19:51:58.484Z,10.15
2018-10-07T19:54:27.726Z,10.14
2018-10-07T19:56:56.251Z,10.13
2018-10-07T19:59:24.793Z,10.11
2018-10-07T20:01:53.459Z,10.12
2018-10-07T20:04:40.096Z,10.09
2018-10-07T20:07:15.170Z,10.07
2018-10-07T20:09:44.057Z,10.02
2018-10-07T20:12:13.029Z,10.01
2018-10-07T20:14:41.885Z,9.95
2018-10-07T20:17:10.908Z,9.86
2018-10-07T20:19:40.105Z,9.80
2018-10-07T20:22:14.143Z,9.73
2018-10-07T20:24:42.913Z,9.66
2018-10-07T20:27:12.180Z,9.60
2018-10-07T20:29:41.155Z,9.55
2018-10-07T20:32:10.329Z,9.50
2018-10-07T20:34:39.436Z,9.43
2018-10-07T20:37:08.636Z,9.38
2018-10-07T20:39:37.605Z,9.35
2018-10-07T20:42:06.265Z,9.33
2018-10-07T20:44:34.727Z,9.32
2018-10-07T20:47:03.315Z,9.34
2018-10-07T20:49:32.073Z,9.36
2018-10-07T20:52:00.573Z,9.35
2018-10-07T20:54:29.123Z,9.33
2018-10-07T20:56:57.671Z,9.32
2018-10-07T20:59:26.257Z,9.27
2018-10-07T21:01:55.125Z,9.17
2018-10-07T21:04:23.681Z,9.11
2018-10-07T21:06:52.271Z,9.06
2018-10-07T21:09:21.066Z,8.99
2018-10-07T21:11:50.635Z,8.90
2018-10-07T21:14:19.429Z,8.82
2018-10-07T21:20:14.394Z,8.72
2018-10-07T21:22:43.054Z,8.69
2018-10-07T21:25:11.879Z,8.67
2018-10-07T21:27:40.446Z,8.61
2018-10-07T21:30:09.519Z,8.55
2018-10-07T21:32:38.248Z,8.46
2018-10-07T21:35:07.866Z,8.37
2018-10-07T21:37:36.511Z,8.29
2018-10-07T21:40:05.247Z,8.21
2018-10-07T21:42:34.286Z,8.14
2018-10-07T21:45:03.131Z,8.08
2018-10-07T21:47:31.734Z,8.04
2018-10-07T21:50:00.365Z,7.99
2018-10-07T21:52:29.200Z,7.93
2018-10-07T21:54:57.734Z,7.89
2018-10-07T21:57:26.469Z,7.84
2018-10-07T21:59:55.158Z,7.82
2018-10-07T22:02:23.701Z,7.83
2018-10-07T22:04:52.380Z,7.83
2018-10-07T22:07:21.128Z,7.83
2018-10-07T22:09:50.732Z,7.86
2018-10-07T22:12:19.377Z,7.86
2018-10-07T22:14:47.960Z,7.88
2018-10-07T22:17:17.627Z,7.90
2018-10-07T22:19:46.324Z,7.92
2018-10-07T22:22:15.012Z,7.94
2018-10-07T22:24:43.592Z,8.01
2018-10-07T22:27:13.249Z,8.05
2018-10-07T22:29:41.937Z,8.08
2018-10-07T22:32:10.441Z,8.11
2018-10-07T22:34:39.088Z,8.16
2018-10-07T22:37:07.875Z,8.19
2018-10-07T22:39:36.523Z,8.23
2018-10-07T22:42:05.130Z,8.30
2018-10-07T22:44:33.885Z,8.36
2018-10-07T22:47:02.833Z,8.43
2018-10-07T22:49:31.441Z,8.51
2018-10-07T22:51:59.995Z,8.57
2018-10-07T22:54:28.553Z,8.64
2018-10-07T22:56:57.135Z,8.69
2018-10-07T22:59:26.605Z,8.77
2018-10-07T23:01:55.091Z,8.81
2018-10-07T23:04:23.825Z,8.82
2018-10-07T23:06:52.455Z,8.85
2018-10-07T23:09:20.945Z,8.87
2018-10-07T23:11:49.439Z,8.88
2018-10-07T23:14:17.953Z,8.89
2018-10-07T23:16:46.823Z,8.84
2018-10-07T23:19:15.285Z,8.78
2018-10-07T23:21:43.828Z,8.75
2018-10-07T23:24:12.558Z,8.74
2018-10-07T23:26:41.799Z,8.74
2018-10-07T23:29:10.583Z,8.72
2018-10-07T23:31:39.111Z,8.71
2018-10-07T23:34:07.905Z,8.74
2018-10-07T23:36:36.641Z,8.79
2018-10-07T23:39:07.766Z,8.85
2018-10-07T23:41:36.477Z,8.89
2018-10-07T23:44:04.998Z,8.96
2018-10-07T23:46:33.561Z,8.93
2018-10-07T23:49:02.078Z,8.81
2018-10-07T23:51:30.792Z,8.75
2018-10-07T23:53:59.446Z,8.77
2018-10-07T23:56:28.178Z,8.82
2018-10-07T23:58:57.077Z,8.84
